Time;durP1;ratioP1;P1;durP2;ratioP2;P2;SDS_P1;SDS_P2;PMS_P1;PMS_P2;Temp;Humidity;BMP_temperature;BMP_pressure;BME280_temperature;BME280_humidity;BME280_pressure;Samples;Min_cycle;Max_cycle;Signal;HPM_P1;HPM_P2
2022/07/20 00:01:11;;;;;;;;;;;;;;;14.50;72.04;99325.28;4969217;28;19936;-64
2022/07/20 00:03:37;;;;;;;;;;;;;;;14.45;71.84;99326.22;4984752;28;20031;-64
2022/07/20 00:06:03;;;;;;;;;;;;;;;14.44;72.07;99319.09;4985996;28;20408;-65
2022/07/20 00:11:22;;;;;;;;;;;;;;;14.40;72.00;99321.66;4986788;28;19953;-65
2022/07/20 00:13:48;;;;;;;;;;;;;;;14.41;71.18;99319.72;4968618;28;19973;-65
2022/07/20 00:16:17;;;;;;;;;;;;;;;14.39;71.10;99322.78;4985658;28;19949;-64
2022/07/20 00:18:42;;;;;;;;;;;;;;;14.34;70.85;99320.16;4968398;28;20400;-64
2022/07/20 00:21:08;;;;;;;;;;;;;;;14.32;71.14;99316.91;4985290;28;19993;-64
2022/07/20 00:23:34;;;;;;;;;;;;;;;14.29;70.95;99310.09;4984593;28;19929;-64
2022/07/20 00:25:59;;;;;;;;;;;;;;;14.28;70.75;99308.47;4950546;28;19929;-65
2022/07/20 00:28:25;;;;;;;;;;;;;;;14.28;70.65;99310.41;4984585;28;19934;-66
2022/07/20 00:30:51;;;;;;;;;;;;;;;14.27;70.50;99315.09;4968700;28;20036;-65
2022/07/20 00:33:18;;;;;;;;;;;;;;;14.25;70.42;99308.28;4986407;28;19930;-64
2022/07/20 00:35:43;;;;;;;;;;;;;;;14.21;70.68;99310.84;4985348;28;19965;-67
2022/07/20 00:38:09;;;;;;;;;;;;;;;14.20;70.50;99302.91;4967643;28;19961;-65
2022/07/20 00:40:35;;;;;;;;;;;;;;;14.17;70.35;99299.66;4969956;28;20415;-65
2022/07/20 00:43:01;;;;;;;;;;;;;;;14.17;70.47;99298.84;4987427;28;20000;-64
2022/07/20 00:45:26;;;;;;;;;;;;;;;14.14;70.09;99294.78;4988487;28;19929;-64
2022/07/20 00:47:52;;;;;;;;;;;;;;;14.02;69.88;99276.06;4972100;28;19930;-64
2022/07/20 00:50:19;;;;;;;;;;;;;;;14.11;69.87;99287.13;4972240;28;19929;-66
2022/07/20 00:52:45;;;;;;;;;;;;;;;14.09;70.14;99289.38;4988834;28;19940;-63
2022/07/20 00:55:11;;;;;;;;;;;;;;;14.06;70.37;99286.47;4971915;28;19929;-65
2022/07/20 00:57:36;;;;;;;;;;;;;;;13.99;70.51;99284.94;4970912;28;19984;-62
2022/07/20 01:00:04;;;;;;;;;;;;;;;13.98;70.20;99277.81;4988619;28;19957;-65
2022/07/20 01:02:30;;;;;;;;;;;;;;;13.95;70.46;99274.88;4972833;28;19934;-65
2022/07/20 01:04:56;;;;;;;;;;;;;;;13.93;70.38;99264.22;4985999;28;20316;-65
2022/07/20 01:07:23;;;;;;;;;;;;;;;13.94;70.30;99265.00;4985245;28;19944;-63
2022/07/20 01:09:48;;;;;;;;;;;;;;;13.93;70.52;99272.47;4969998;28;20420;-65
2022/07/20 01:12:14;;;;;;;;;;;;;;;13.92;70.72;99270.00;4986336;28;19930;-65
2022/07/20 01:14:40;;;;;;;;;;;;;;;13.89;70.76;99268.69;4985686;28;19933;-65
2022/07/20 01:17:05;;;;;;;;;;;;;;;13.87;70.70;99269.00;4988468;28;19965;-64
2022/07/20 01:19:31;;;;;;;;;;;;;;;13.86;70.49;99266.56;4955723;28;19936;-65
2022/07/20 01:21:59;;;;;;;;;;;;;;;13.84;70.93;99261.41;4986985;28;19936;-64
2022/07/20 01:24:24;;;;;;;;;;;;;;;13.84;70.93;99261.41;4989120;28;19937;-64
2022/07/20 01:26:50;;;;;;;;;;;;;;;13.84;70.68;99255.06;4973633;28;20199;-66
2022/07/20 01:29:16;;;;;;;;;;;;;;;13.81;70.70;99253.75;4970620;28;20535;-65
2022/07/20 01:31:41;;;;;;;;;;;;;;;13.78;70.79;99242.59;4987591;28;19930;-66
2022/07/20 01:34:07;;;;;;;;;;;;;;;13.63;70.74;99219.00;4987507;28;19929;-66
2022/07/20 01:36:33;;;;;;;;;;;;;;;13.78;70.75;99240.63;4972186;28;19929;-65
2022/07/20 01:39:00;;;;;;;;;;;;;;;13.68;70.49;99224.41;4970026;28;20397;-66
2022/07/20 01:41:26;;;;;;;;;;;;;;;13.84;70.28;99244.91;4988065;28;19930;-66
2022/07/20 01:43:51;;;;;;;;;;;;;;;13.86;70.27;99241.84;4984735;28;19930;-65
2022/07/20 01:46:17;;;;;;;;;;;;;;;13.88;70.23;99245.09;4968879;28;19929;-64
2022/07/20 01:48:43;;;;;;;;;;;;;;;13.89;70.23;99236.53;4988111;28;20303;-66
2022/07/20 01:51:09;;;;;;;;;;;;;;;13.93;70.27;99225.75;4969234;28;20024;-67
2022/07/20 01:53:35;;;;;;;;;;;;;;;13.95;70.21;99223.50;4968818;28;20348;-66
2022/07/20 01:56:02;;;;;;;;;;;;;;;13.96;70.11;99221.53;4984507;28;20222;-67
2022/07/20 01:58:28;;;;;;;;;;;;;;;13.99;69.93;99224.50;4953713;28;20297;-66
2022/07/20 02:00:53;;;;;;;;;;;;;;;14.04;70.03;99215.31;4983287;28;19936;-65
2022/07/20 02:03:19;;;;;;;;;;;;;;;14.08;70.38;99218.25;4987338;28;19929;-65
2022/07/20 02:05:45;;;;;;;;;;;;;;;14.13;70.52;99213.44;4987151;28;20248;-64
2022/07/20 02:08:11;;;;;;;;;;;;;;;14.17;69.89;99206.19;4969127;28;19980;-66
2022/07/20 02:10:37;;;;;;;;;;;;;;;14.20;69.76;99204.72;4988157;28;20319;-66
2022/07/20 02:13:04;;;;;;;;;;;;;;;14.19;69.33;99200.34;4987010;28;20468;-65
2022/07/20 02:18:34;;;;;;;;;;;;;;;14.22;69.51;99199.75;4988491;28;19965;-64
2022/07/20 02:21:00;;;;;;;;;;;;;;;14.27;69.45;99194.13;4947576;28;20043;-65
2022/07/20 02:23:26;;;;;;;;;;;;;;;14.30;69.57;99189.94;4968131;28;19930;-63
2022/07/20 02:25:52;;;;;;;;;;;;;;;14.37;69.11;99184.00;4964741;28;19930;-64
2022/07/20 02:28:19;;;;;;;;;;;;;;;14.42;69.02;99176.38;4947334;28;20270;-64
2022/07/20 02:30:44;;;;;;;;;;;;;;;14.48;69.14;99170.78;4935102;28;19930;-65
2022/07/20 02:33:10;;;;;;;;;;;;;;;14.68;68.52;99172.97;4969376;28;19929;-64
2022/07/20 02:35:36;;;;;;;;;;;;;;;14.89;67.69;99173.22;4970257;28;19972;-65
2022/07/20 02:38:01;;;;;;;;;;;;;;;14.90;67.55;99179.53;4953509;28;19936;-65
2022/07/20 02:40:27;;;;;;;;;;;;;;;14.89;68.02;99169.66;4989526;28;19992;-64
2022/07/20 02:42:53;;;;;;;;;;;;;;;14.91;67.69;99175.66;4971077;28;19964;-64
2022/07/20 02:45:21;;;;;;;;;;;;;;;14.93;67.35;99170.66;4985364;28;20385;-64
2022/07/20 02:47:48;;;;;;;;;;;;;;;14.96;67.42;99166.44;4985481;28;20325;-64
2022/07/20 02:50:14;;;;;;;;;;;;;;;15.03;67.45;99159.31;4988298;28;20021;-64
2022/07/20 02:52:40;;;;;;;;;;;;;;;15.06;67.11;99154.31;4987801;28;19936;-63
2022/07/20 02:55:06;;;;;;;;;;;;;;;15.00;67.20;99154.47;4988244;28;20024;-66
2022/07/20 02:57:32;;;;;;;;;;;;;;;15.02;67.44;99143.94;4986691;28;19930;-67
2022/07/20 02:59:58;;;;;;;;;;;;;;;15.13;66.97;99144.44;4969580;28;19930;-66
2022/07/20 03:02:25;;;;;;;;;;;;;;;15.20;67.06;99140.44;4988215;28;19929;-66
2022/07/20 03:04:51;;;;;;;;;;;;;;;15.23;66.91;99146.09;4970746;28;19964;-65
2022/07/20 03:07:17;;;;;;;;;;;;;;;15.28;66.73;99140.44;4986528;28;19930;-64
2022/07/20 03:09:42;;;;;;;;;;;;;;;15.31;66.70;99136.22;4985820;28;19930;-65
2022/07/20 03:12:08;;;;;;;;;;;;;;;15.30;66.84;99126.34;4986643;28;20356;-65
2022/07/20 03:14:34;;;;;;;;;;;;;;;15.40;67.20;99130.72;4985411;28;20405;-65
2022/07/20 03:17:00;;;;;;;;;;;;;;;15.47;66.71;99125.53;4969071;28;19930;-64
2022/07/20 03:19:28;;;;;;;;;;;;;;;15.40;66.58;99103.19;4969105;28;19929;-64
2022/07/20 03:21:53;;;;;;;;;;;;;;;15.57;66.53;99114.19;4987390;28;19959;-64
2022/07/20 03:24:19;;;;;;;;;;;;;;;15.55;66.25;99115.66;4968215;28;19938;-64
2022/07/20 03:26:45;;;;;;;;;;;;;;;15.53;66.70;99118.75;4983450;28;19930;-64
2022/07/20 03:29:10;;;;;;;;;;;;;;;15.55;66.86;99118.41;4970078;28;19930;-65
2022/07/20 03:31:36;;;;;;;;;;;;;;;15.61;66.87;99108.84;4987461;28;20405;-65
2022/07/20 03:34:02;;;;;;;;;;;;;;;15.68;66.67;99114.66;4970440;28;19936;-66
2022/07/20 03:36:29;;;;;;;;;;;;;;;15.77;66.81;99111.09;4986406;28;19930;-67
2022/07/20 03:38:54;;;;;;;;;;;;;;;15.84;66.51;99111.41;4984717;28;19930;-65
2022/07/20 03:41:20;;;;;;;;;;;;;;;15.91;66.40;99106.22;4968126;28;19937;-66
2022/07/20 03:43:46;;;;;;;;;;;;;;;15.93;66.60;99112.22;4969777;28;19929;-64
2022/07/20 03:46:12;;;;;;;;;;;;;;;15.94;66.62;99113.03;4984535;28;19929;-66
2022/07/20 03:48:37;;;;;;;;;;;;;;;15.88;66.90;99110.44;4985829;28;19930;-66
2022/07/20 03:51:03;;;;;;;;;;;;;;;15.84;67.16;99114.16;4967499;28;19930;-67
2022/07/20 03:53:31;;;;;;;;;;;;;;;15.79;67.64;99106.06;4967204;28;20032;-66
2022/07/20 03:55:56;;;;;;;;;;;;;;;15.79;67.77;99101.34;4965997;28;19930;-66
2022/07/20 03:58:22;;;;;;;;;;;;;;;15.74;67.85;99101.53;4967243;28;20286;-66
2022/07/20 04:00:47;;;;;;;;;;;;;;;15.66;68.49;99105.91;4987212;28;19937;-65
2022/07/20 04:03:13;;;;;;;;;;;;;;;15.61;68.71;99108.84;4969415;28;19936;-67
2022/07/20 04:05:39;;;;;;;;;;;;;;;15.61;68.69;99108.84;4988607;28;20388;-67
2022/07/20 04:08:08;;;;;;;;;;;;;;;15.61;68.79;99106.09;4952574;28;20360;-67
2022/07/20 04:10:35;;;;;;;;;;;;;;;15.57;69.22;99103.16;4984330;28;20329;-67
2022/07/20 04:13:02;;;;;;;;;;;;;;;15.57;69.64;99096.84;4987017;28;20308;-65
2022/07/20 04:15:27;;;;;;;;;;;;;;;15.59;69.49;99098.13;4969510;28;19930;-65
2022/07/20 04:17:53;;;;;;;;;;;;;;;15.62;70.28;99098.63;4986224;28;19938;-64
2022/07/20 04:20:19;;;;;;;;;;;;;;;15.60;70.51;99097.00;4988213;28;19930;-65
2022/07/20 04:22:45;;;;;;;;;;;;;;;15.64;70.48;99091.66;4990319;28;19930;-64
2022/07/20 04:25:10;;;;;;;;;;;;;;;15.66;70.92;99094.91;4973340;28;20439;-64
2022/07/20 04:27:37;;;;;;;;;;;;;;;15.60;71.25;99083.22;4940112;28;19956;-65
2022/07/20 04:30:04;;;;;;;;;;;;;;;15.55;71.72;99074.31;4988700;28;19929;-64
2022/07/20 04:32:29;;;;;;;;;;;;;;;15.54;72.23;99078.22;4990041;28;19973;-65
2022/07/20 04:34:55;;;;;;;;;;;;;;;15.53;72.24;99069.16;4973750;28;19984;-67
2022/07/20 04:37:21;;;;;;;;;;;;;;;15.47;72.68;99064.13;4990431;28;19972;-65
2022/07/20 04:39:47;;;;;;;;;;;;;;;15.37;72.83;99051.47;4972205;28;19965;-65
2022/07/20 04:42:13;;;;;;;;;;;;;;;15.37;72.88;99054.22;4986251;28;20428;-65
2022/07/20 04:44:42;;;;;;;;;;;;;;;15.30;73.05;99058.28;4986447;28;19930;-65
2022/07/20 04:47:08;;;;;;;;;;;;;;;15.21;73.27;99053.94;4979128;28;20472;-64
2022/07/20 04:49:34;;;;;;;;;;;;;;;15.19;73.93;99047.94;4948814;28;20028;-65
2022/07/20 04:52:00;;;;;;;;;;;;;;;15.26;73.91;99049.06;4990103;28;19930;-65
2022/07/20 04:54:25;;;;;;;;;;;;;;;15.29;73.68;99042.91;4992230;28;20440;-69
2022/07/20 04:56:51;;;;;;;;;;;;;;;15.36;73.79;99036.91;4992125;28;20008;-65
2022/07/20 04:59:17;;;;;;;;;;;;;;;15.40;73.60;99034.31;4990726;28;20380;-65
2022/07/20 05:01:44;;;;;;;;;;;;;;;15.40;73.87;99035.13;4990564;28;19976;-65
2022/07/20 05:04:10;;;;;;;;;;;;;;;15.39;74.04;99035.47;4973242;28;20014;-65
2022/07/20 05:06:36;;;;;;;;;;;;;;;15.33;74.12;99034.81;4990409;28;19974;-65
2022/07/20 05:09:03;;;;;;;;;;;;;;;15.18;74.48;99038.84;4988479;28;19929;-65
2022/07/20 05:11:30;;;;;;;;;;;;;;;15.06;75.00;99036.75;4987400;28;20389;-64
2022/07/20 05:13:56;;;;;;;;;;;;;;;14.98;75.51;99035.63;4971929;28;20428;-64
2022/07/20 05:16:22;;;;;;;;;;;;;;;14.95;75.92;99040.97;4971632;28;20004;-65
2022/07/20 05:18:49;;;;;;;;;;;;;;;14.89;76.20;99049.38;4955812;28;20036;-66
2022/07/20 05:21:15;;;;;;;;;;;;;;;14.79;76.48;99044.19;4969920;28;20289;-66
2022/07/20 05:23:40;;;;;;;;;;;;;;;14.72;76.54;99039.16;4988283;28;19937;-66
2022/07/20 05:26:06;;;;;;;;;;;;;;;14.65;77.21;99035.22;4983290;28;19930;-66
2022/07/20 05:28:33;;;;;;;;;;;;;;;14.57;77.76;99032.16;4985025;28;19930;-67
2022/07/20 05:30:59;;;;;;;;;;;;;;;14.59;78.16;99034.56;4986563;28;19936;-66
2022/07/20 05:33:25;;;;;;;;;;;;;;;14.63;78.33;99034.72;4988629;28;20028;-66
2022/07/20 05:35:52;;;;;;;;;;;;;;;14.63;78.67;99030.06;4987481;28;19930;-66
2022/07/20 05:38:19;;;;;;;;;;;;;;;14.65;78.70;99026.97;4988498;28;20308;-65
2022/07/20 05:40:45;;;;;;;;;;;;;;;14.67;79.08;99019.19;4993957;28;19945;-67
2022/07/20 05:43:11;;;;;;;;;;;;;;;14.68;78.96;99015.34;4990160;28;19930;-67
2022/07/20 05:45:37;;;;;;;;;;;;;;;14.60;79.60;99015.00;4971067;28;19937;-64
2022/07/20 05:48:05;;;;;;;;;;;;;;;14.49;80.51;99001.88;4990096;28;20521;-66
2022/07/20 05:50:31;;;;;;;;;;;;;;;14.41;81.59;98985.03;4951822;28;19970;-66
2022/07/20 05:52:58;;;;;;;;;;;;;;;14.30;82.85;98981.75;4965269;28;20325;-65
2022/07/20 05:55:25;;;;;;;;;;;;;;;14.19;84.74;98983.19;4980979;28;19937;-65
2022/07/20 05:57:50;;;;;;;;;;;;;;;14.04;86.10;98987.97;4932325;28;19930;-65
2022/07/20 06:00:16;;;;;;;;;;;;;;;13.79;87.17;98963.97;4981028;28;19930;-65
2022/07/20 06:02:43;;;;;;;;;;;;;;;13.77;88.33;98986.25;4986513;28;19937;-65
2022/07/20 06:05:09;;;;;;;;;;;;;;;13.72;88.91;98970.72;4969073;28;19930;-66
2022/07/20 06:07:35;;;;;;;;;;;;;;;13.66;89.27;98968.44;4987810;28;19929;-67
2022/07/20 06:10:02;;;;;;;;;;;;;;;13.69;89.62;98948.59;4988312;28;19930;-66
2022/07/20 06:12:29;;;;;;;;;;;;;;;13.78;89.85;98943.13;4971006;28;19961;-66
2022/07/20 06:14:54;;;;;;;;;;;;;;;13.86;89.45;98937.66;4989814;28;19969;-65
2022/07/20 06:17:21;;;;;;;;;;;;;;;13.92;89.39;98938.34;4989946;28;19936;-67
2022/07/20 06:19:48;;;;;;;;;;;;;;;13.95;89.01;98931.38;4967873;28;20320;-66
2022/07/20 06:22:13;;;;;;;;;;;;;;;14.03;88.77;98930.59;4961328;28;19930;-67
2022/07/20 06:24:39;;;;;;;;;;;;;;;14.12;88.68;98927.88;4971138;28;19930;-67
2022/07/20 06:27:06;;;;;;;;;;;;;;;14.22;88.18;98916.59;4989753;28;20405;-66
2022/07/20 06:29:32;;;;;;;;;;;;;;;14.35;87.92;98916.75;4989632;28;19930;-67
2022/07/20 06:31:58;;;;;;;;;;;;;;;14.53;87.04;98912.91;4988367;28;20451;-66
2022/07/20 06:34:23;;;;;;;;;;;;;;;14.78;86.42;98916.00;4988450;28;19952;-66
2022/07/20 06:36:51;;;;;;;;;;;;;;;15.01;85.28;98918.56;4987676;28;20228;-67
2022/07/20 06:39:17;;;;;;;;;;;;;;;15.17;84.22;98916.09;4989259;28;19930;-66
2022/07/20 06:41:42;;;;;;;;;;;;;;;15.30;83.79;98915.09;4971585;28;19972;-65
2022/07/20 06:44:10;;;;;;;;;;;;;;;15.45;82.89;98908.25;4970679;28;19930;-67
2022/07/20 06:46:36;;;;;;;;;;;;;;;15.57;81.92;98915.00;4988253;28;19984;-67
2022/07/20 06:49:02;;;;;;;;;;;;;;;15.69;81.45;98917.09;4988143;28;19965;-67
2022/07/20 06:51:28;;;;;;;;;;;;;;;15.77;80.39;98909.94;4987468;28;20417;-67
2022/07/20 06:53:53;;;;;;;;;;;;;;;15.85;80.17;98901.63;4970542;28;19930;-66
2022/07/20 06:56:19;;;;;;;;;;;;;;;15.90;79.45;98897.88;4987904;28;19930;-67
2022/07/20 06:58:45;;;;;;;;;;;;;;;15.87;79.45;98887.47;4971432;28;20389;-66
2022/07/20 07:01:12;;;;;;;;;;;;;;;15.86;79.58;98897.72;4972098;28;20392;-67
2022/07/20 07:03:37;;;;;;;;;;;;;;;15.84;78.75;98891.72;4987856;28;19937;-67
2022/07/20 07:06:03;;;;;;;;;;;;;;;15.73;78.78;98893.25;4989535;28;19933;-65
2022/07/20 07:08:29;;;;;;;;;;;;;;;15.70;78.83;98886.44;4987620;28;19934;-65
2022/07/20 07:10:55;;;;;;;;;;;;;;;15.77;78.78;98890.63;4956299;28;19930;-66
2022/07/20 07:13:20;;;;;;;;;;;;;;;15.88;78.45;98891.84;4989637;28;20018;-66
2022/07/20 07:15:46;;;;;;;;;;;;;;;16.02;77.99;98886.16;4989324;28;19964;-66
2022/07/20 07:18:13;;;;;;;;;;;;;;;16.30;77.12;98880.91;4971465;28;19934;-66
2022/07/20 07:20:39;;;;;;;;;;;;;;;16.71;75.46;98883.19;4987186;28;20788;-65
2022/07/20 07:23:05;;;;;;;;;;;;;;;17.13;74.01;98871.28;4969777;28;20024;-65
2022/07/20 07:25:31;;;;;;;;;;;;;;;17.67;72.12;98867.56;4988115;28;20684;-66
2022/07/20 07:27:56;;;;;;;;;;;;;;;17.98;69.42;98873.63;4970942;28;19984;-65
2022/07/20 07:30:22;;;;;;;;;;;;;;;18.13;67.55;98861.88;4986916;28;19934;-66
2022/07/20 07:32:48;;;;;;;;;;;;;;;18.40;66.48;98864.25;4935953;28;19930;-65
2022/07/20 07:35:15;;;;;;;;;;;;;;;18.88;64.94;98863.59;4969393;28;19930;-67
2022/07/20 07:37:41;;;;;;;;;;;;;;;19.31;64.22;98858.44;4987206;28;19929;-67
2022/07/20 07:40:07;;;;;;;;;;;;;;;19.70;62.22;98851.09;4954839;28;19936;-67
2022/07/20 07:42:33;;;;;;;;;;;;;;;19.55;61.31;98849.94;4970514;28;19933;-67
2022/07/20 07:45:04;;;;;;;;;;;;;;;19.18;62.65;98846.59;4970280;28;19936;-66
2022/07/20 07:47:30;;;;;;;;;;;;;;;18.91;64.10;98843.53;4969534;28;19933;-66
2022/07/20 07:49:56;;;;;;;;;;;;;;;18.74;62.82;98839.91;4988173;28;20545;-67
2022/07/20 07:52:23;;;;;;;;;;;;;;;18.12;63.17;98842.91;4986750;28;20032;-67
2022/07/20 07:54:49;;;;;;;;;;;;;;;18.12;64.00;98837.38;4972597;28;20028;-67
2022/07/20 07:57:14;;;;;;;;;;;;;;;18.03;64.13;98829.19;4991208;28;20301;-67
2022/07/20 07:59:42;;;;;;;;;;;;;;;17.97;63.79;98828.59;4992541;28;19945;-66
2022/07/20 08:02:07;;;;;;;;;;;;;;;17.94;63.69;98818.22;4991267;28;19930;-66
2022/07/20 08:04:33;;;;;;;;;;;;;;;18.24;62.58;98823.47;4968438;28;19929;-66
2022/07/20 08:06:59;;;;;;;;;;;;;;;18.82;61.15;98819.56;4969050;28;19930;-65
2022/07/20 08:09:26;;;;;;;;;;;;;;;19.62;58.93;98804.94;4988233;28;19930;-67
2022/07/20 08:11:52;;;;;;;;;;;;;;;20.52;56.83;98805.28;4970021;28;19930;-65
2022/07/20 08:14:18;;;;;;;;;;;;;;;20.83;55.16;98807.13;4987952;28;19956;-66
2022/07/20 08:16:43;;;;;;;;;;;;;;;20.65;53.93;98797.63;4968990;28;20404;-67
2022/07/20 08:19:09;;;;;;;;;;;;;;;20.62;54.30;98801.13;4968651;28;19929;-69
2022/07/20 08:21:35;;;;;;;;;;;;;;;20.79;53.40;98794.31;4986245;28;19968;-67
2022/07/20 08:24:01;;;;;;;;;;;;;;;21.14;52.63;98792.56;4969223;28;19985;-66
2022/07/20 08:26:28;;;;;;;;;;;;;;;21.66;51.19;98798.59;4970075;28;19933;-67
2022/07/20 08:28:54;;;;;;;;;;;;;;;22.25;49.68;98787.06;4985541;28;19929;-65
2022/07/20 08:31:20;;;;;;;;;;;;;;;22.50;49.13;98783.81;4986049;28;20011;-67
2022/07/20 08:33:46;;;;;;;;;;;;;;;22.96;48.12;98779.91;4967294;28;19929;-67
2022/07/20 08:36:11;;;;;;;;;;;;;;;22.94;47.69;98773.91;4968874;28;20316;-68
2022/07/20 08:38:37;;;;;;;;;;;;;;;22.69;48.05;98766.09;4966958;28;19937;-67
2022/07/20 08:41:03;;;;;;;;;;;;;;;22.76;48.34;98752.22;4967617;28;19929;-67
2022/07/20 08:43:30;;;;;;;;;;;;;;;23.37;47.26;98757.56;4967834;28;20395;-67
2022/07/20 08:45:56;;;;;;;;;;;;;;;24.04;45.50;98752.00;4967905;28;19929;-67
2022/07/20 08:48:22;;;;;;;;;;;;;;;24.31;44.08;98750.91;4969098;28;19961;-65
2022/07/20 08:50:48;;;;;;;;;;;;;;;24.55;43.66;98754.19;4626478;28;9999686;-68
2022/07/20 08:53:14;;;;;;;;;;;;;;;24.68;42.35;98746.22;4984340;28;19929;-68
2022/07/20 08:55:40;;;;;;;;;;;;;;;25.02;41.78;98748.69;4986631;28;20459;-67
2022/07/20 08:58:06;;;;;;;;;;;;;;;25.60;40.73;98748.66;4984882;28;19929;-67
2022/07/20 09:00:33;;;;;;;;;;;;;;;26.18;39.85;98762.53;4986003;28;19940;-67
2022/07/20 09:03:03;;;;;;;;;;;;;;;26.50;38.92;98760.75;4985049;28;20020;-67
2022/07/20 09:05:30;;;;;;;;;;;;;;;26.37;38.37;98764.03;4984390;28;19969;-66
2022/07/20 09:07:56;;;;;;;;;;;;;;;26.35;38.56;98763.63;4957599;28;19944;-67
2022/07/20 09:10:24;;;;;;;;;;;;;;;25.22;40.83;98765.88;4967437;28;19930;-67
2022/07/20 09:12:51;;;;;;;;;;;;;;;24.86;42.20;98763.84;4984415;28;19929;-67
2022/07/20 09:15:24;;;;;;;;;;;;;;;25.46;41.41;98767.03;4981518;28;19969;-67
2022/07/20 09:18:00;;;;;;;;;;;;;;;25.82;40.65;98765.41;4987259;28;20016;-67
2022/07/20 09:20:29;;;;;;;;;;;;;;;26.15;40.01;98754.91;4989364;28;19975;-66
2022/07/20 09:22:59;;;;;;;;;;;;;;;26.72;38.06;98758.63;4971236;28;19929;-66
2022/07/20 09:25:25;;;;;;;;;;;;;;;27.26;37.54;98763.09;4970995;28;20012;-68
2022/07/20 09:27:50;;;;;;;;;;;;;;;28.09;35.68;98759.44;4987037;28;20085;-66
2022/07/20 09:30:17;;;;;;;;;;;;;;;27.67;36.04;98758.72;4989696;28;20421;-67
2022/07/20 09:32:50;;;;;;;;;;;;;;;26.74;37.77;98759.84;4986965;28;19937;-66
2022/07/20 09:35:19;;;;;;;;;;;;;;;26.09;39.09;98757.34;4968928;28;19940;-67
2022/07/20 09:37:44;;;;;;;;;;;;;;;25.18;40.43;98743.47;4984999;28;20028;-67
2022/07/20 09:40:11;;;;;;;;;;;;;;;24.56;41.45;98747.41;4989911;28;19934;-67
2022/07/20 09:42:37;;;;;;;;;;;;;;;23.75;42.13;98746.25;4988590;28;19929;-67
2022/07/20 09:45:16;;;;;;;;;;;;;;;22.88;44.22;98748.38;4969985;28;19953;-66
2022/07/20 09:47:59;;;;;;;;;;;;;;;21.87;46.58;98741.66;4988874;28;19936;-68
2022/07/20 09:50:29;;;;;;;;;;;;;;;20.83;49.57;98746.00;4990027;28;19930;-66
2022/07/20 09:52:55;;;;;;;;;;;;;;;20.33;50.51;98745.84;4971304;28;19936;-67
2022/07/20 09:55:20;;;;;;;;;;;;;;;20.06;51.59;98736.59;4985809;28;19930;-68
2022/07/20 09:57:46;;;;;;;;;;;;;;;19.68;52.94;98730.59;4987196;28;20305;-66
2022/07/20 10:00:13;;;;;;;;;;;;;;;19.36;54.13;98730.69;4971369;28;19933;-66
2022/07/20 10:02:38;;;;;;;;;;;;;;;19.35;54.07;98727.09;4988814;28;20000;-66
2022/07/20 10:05:05;;;;;;;;;;;;;;;19.44;53.40;98724.16;4969337;28;20364;-67
2022/07/20 10:07:32;;;;;;;;;;;;;;;19.38;53.93;98720.03;4988338;28;20048;-66
2022/07/20 10:09:58;;;;;;;;;;;;;;;19.51;54.56;98720.72;4987082;28;19945;-66
2022/07/20 10:12:24;;;;;;;;;;;;;;;19.44;54.21;98715.03;4986945;28;19936;-66
2022/07/20 10:14:51;;;;;;;;;;;;;;;19.51;53.38;98715.19;4989782;28;19933;-66
2022/07/20 10:17:17;;;;;;;;;;;;;;;20.94;50.10;98710.06;4953999;28;19965;-66
2022/07/20 10:19:47;;;;;;;;;;;;;;;23.39;43.40;98714.53;4967841;28;19930;-66
2022/07/20 10:22:13;;;;;;;;;;;;;;;24.95;40.49;98706.75;4948590;28;19936;-67
2022/07/20 10:24:43;;;;;;;;;;;;;;;26.42;37.39;98703.97;4967495;28;20324;-67
2022/07/20 10:27:26;;;;;;;;;;;;;;;26.88;36.08;98693.69;4982867;28;19992;-68
2022/07/20 10:29:54;;;;;;;;;;;;;;;26.93;35.34;98703.63;4987089;28;19940;-68
2022/07/20 10:32:21;;;;;;;;;;;;;;;26.88;35.82;98691.66;4987484;28;19952;-68
2022/07/20 10:34:48;;;;;;;;;;;;;;;25.82;37.65;98685.03;4986282;28;20020;-67
2022/07/20 10:37:30;;;;;;;;;;;;;;;25.47;38.34;98676.31;4968440;28;19953;-68
2022/07/20 10:40:08;;;;;;;;;;;;;;;24.29;40.77;98677.91;4969875;28;20121;-67
2022/07/20 10:42:37;;;;;;;;;;;;;;;24.56;40.54;98677.56;4959052;28;19930;-67
2022/07/20 10:45:20;;;;;;;;;;;;;;;26.47;37.47;98672.75;4975582;28;19930;-67
2022/07/20 10:47:48;;;;;;;;;;;;;;;27.77;34.37;98672.78;4619338;28;10000106;-68
2022/07/20 10:50:18;;;;;;;;;;;;;;;28.08;34.13;98662.34;4965677;28;19936;-66
2022/07/20 10:52:45;;;;;;;;;;;;;;;29.41;31.30;98660.66;4982869;28;19971;-67
2022/07/20 10:55:38;;;;;;;;;;;;;;;29.97;29.65;98661.97;4981749;28;19937;-67
2022/07/20 10:58:04;;;;;;;;;;;;;;;30.02;29.41;98658.66;4969069;28;20040;-68
2022/07/20 11:00:31;;;;;;;;;;;;;;;30.13;29.23;98662.06;4965289;28;19961;-68
2022/07/20 11:02:57;;;;;;;;;;;;;;;30.73;28.23;98654.66;4963308;28;19933;-67
2022/07/20 11:05:23;;;;;;;;;;;;;;;31.18;27.12;98664.41;4968245;28;19945;-68
2022/07/20 11:07:49;;;;;;;;;;;;;;;31.57;26.87;98660.97;4985283;28;19965;-67
2022/07/20 11:10:20;;;;;;;;;;;;;;;31.95;25.66;98657.47;4988490;28;19930;-67
2022/07/20 11:12:53;;;;;;;;;;;;;;;32.14;25.80;98666.19;4970443;28;19944;-68
2022/07/20 11:15:19;;;;;;;;;;;;;;;32.14;25.08;98654.91;4985628;28;19930;-66
2022/07/20 11:17:44;;;;;;;;;;;;;;;31.80;25.49;98663.56;4966668;28;19937;-66
2022/07/20 11:20:11;;;;;;;;;;;;;;;31.81;25.55;98667.19;4987424;28;19933;-68
2022/07/20 11:22:37;;;;;;;;;;;;;;;32.22;24.80;98657.06;4968319;28;20322;-66
2022/07/20 11:25:03;;;;;;;;;;;;;;;32.18;24.32;98658.44;4968682;28;20440;-66
2022/07/20 11:27:30;;;;;;;;;;;;;;;31.96;24.42;98661.88;4987158;28;19930;-67
2022/07/20 11:29:56;;;;;;;;;;;;;;;31.02;24.81;98639.84;4986371;28;20020;-67
2022/07/20 11:32:22;;;;;;;;;;;;;;;30.37;26.57;98661.16;4967039;28;19937;-66
2022/07/20 11:34:49;;;;;;;;;;;;;;;30.62;25.86;98660.56;4987689;28;19933;-68
2022/07/20 11:37:18;;;;;;;;;;;;;;;31.16;24.85;98661.22;4970925;28;19930;-67
2022/07/20 11:39:44;;;;;;;;;;;;;;;32.01;24.09;98660.53;4967975;28;19930;-66
2022/07/20 11:42:11;;;;;;;;;;;;;;;33.15;22.34;98659.38;4967861;28;20006;-68
2022/07/20 11:44:38;;;;;;;;;;;;;;;33.17;22.62;98656.84;4986701;28;19940;-68
2022/07/20 11:47:04;;;;;;;;;;;;;;;32.87;22.79;98657.03;4986699;28;20301;-66
2022/07/20 11:49:30;;;;;;;;;;;;;;;32.67;23.20;98662.94;4968275;28;20198;-66
2022/07/20 11:51:57;;;;;;;;;;;;;;;33.20;23.12;98645.41;4985908;28;19931;-65
2022/07/20 11:54:24;;;;;;;;;;;;;;;33.61;21.99;98653.31;4985998;28;20479;-66
2022/07/20 11:56:50;;;;;;;;;;;;;;;33.08;22.06;98652.72;4986056;28;19930;-67
2022/07/20 11:59:16;;;;;;;;;;;;;;;32.82;22.71;98649.91;4985762;28;19988;-67
2022/07/20 12:01:43;;;;;;;;;;;;;;;32.46;22.16;98644.63;4985985;28;19930;-67
2022/07/20 12:04:10;;;;;;;;;;;;;;;30.23;24.79;98648.16;4967989;28;19930;-67
2022/07/20 12:06:36;;;;;;;;;;;;;;;28.40;26.75;98652.69;4985784;28;20257;-66
2022/07/20 12:09:04;;;;;;;;;;;;;;;27.91;27.54;98652.16;4953563;28;19929;-67
2022/07/20 12:11:29;;;;;;;;;;;;;;;28.49;26.76;98648.56;4986885;28;19934;-68
2022/07/20 12:13:55;;;;;;;;;;;;;;;28.30;26.88;98646.00;4638440;28;10000200;-67
2022/07/20 12:16:21;;;;;;;;;;;;;;;27.32;28.62;98654.81;4963952;28;19956;-65
2022/07/20 12:18:52;;;;;;;;;;;;;;;26.99;29.65;98663.53;4982086;28;20328;-68
2022/07/20 12:21:19;;;;;;;;;;;;;;;28.64;27.28;98647.09;4948960;28;19940;-67
2022/07/20 12:23:46;;;;;;;;;;;;;;;30.04;25.28;98641.34;4981979;28;19934;-67
2022/07/20 12:26:26;;;;;;;;;;;;;;;29.99;25.40;98646.22;4963889;28;19930;-66
2022/07/20 12:28:53;;;;;;;;;;;;;;;29.24;26.18;98651.31;4982938;28;20408;-67
2022/07/20 12:31:19;;;;;;;;;;;;;;;27.66;28.37;98658.88;4982346;28;19937;-66
2022/07/20 12:34:03;;;;;;;;;;;;;;;26.10;30.82;98654.50;4982301;28;19930;-67
2022/07/20 12:36:32;;;;;;;;;;;;;;;25.03;32.94;98652.44;4964051;28;19930;-67
2022/07/20 12:38:58;;;;;;;;;;;;;;;24.49;34.70;98658.78;4964790;28;20495;-66
2022/07/20 12:41:24;;;;;;;;;;;;;;;23.84;35.79;98659.38;4983543;28;19934;-67
2022/07/20 12:43:50;;;;;;;;;;;;;;;23.36;36.66;98657.59;4985536;28;19933;-67
2022/07/20 12:46:16;;;;;;;;;;;;;;;23.02;37.20;98664.09;4951950;28;20752;-67
2022/07/20 12:48:42;;;;;;;;;;;;;;;22.74;38.15;98671.03;4967835;28;19936;-67